Time;durP1;ratioP1;P1;durP2;ratioP2;P2;SDS_P1;SDS_P2;PMS_P1;PMS_P2;Temp;Humidity;BMP_temperature;BMP_pressure;BME280_temperature;BME280_humidity;BME280_pressure;Samples;Min_cycle;Max_cycle;Signal;HPM_P1;HPM_P2
2023/10/02 00:01:10;;;;;;;5.50;4.50;;;17.10;99.90;;;;;;5048921;28;20428;-72
2023/10/02 00:03:40;;;;;;;5.60;4.70;;;17.10;99.90;;;;;;5051319;28;20440;-70
2023/10/02 00:06:16;;;;;;;9.80;5.13;;;17.10;99.90;;;;;;5048448;28;20442;-70
2023/10/02 00:08:42;;;;;;;5.93;4.90;;;17.00;99.90;;;;;;5051779;28;21072;-71
2023/10/02 00:11:39;;;;;;;6.87;4.30;;;16.90;99.90;;;;;;5051772;28;20421;-71
2023/10/02 00:14:20;;;;;;;6.43;4.80;;;16.90;99.90;;;;;;5051954;28;20445;-71
2023/10/02 00:17:05;;;;;;;7.20;5.30;;;16.90;99.90;;;;;;5051786;28;20425;-71
2023/10/02 00:19:38;;;;;;;6.20;4.80;;;16.90;99.90;;;;;;5051802;28;20458;-70
2023/10/02 00:22:37;;;;;;;10.33;5.57;;;16.90;99.90;;;;;;5051789;28;20409;-71
2023/10/02 00:25:09;;;;;;;7.27;4.83;;;16.90;99.90;;;;;;5046118;28;21019;-71
2023/10/02 00:27:38;;;;;;;6.63;4.33;;;16.90;99.90;;;;;;5046920;28;20503;-70
2023/10/02 00:30:13;;;;;;;8.90;4.60;;;16.90;99.90;;;;;;5051772;28;20767;-71
2023/10/02 00:32:41;;;;;;;6.60;4.57;;;16.90;99.90;;;;;;5044530;28;20484;-69
2023/10/02 00:35:11;;;;;;;6.07;4.00;;;16.90;99.90;;;;;;5052514;28;20815;-69
2023/10/02 00:37:44;;;;;;;7.63;4.77;;;16.90;99.90;;;;;;5047772;28;20454;-70
2023/10/02 00:40:22;;;;;;;7.83;4.77;;;16.90;99.90;;;;;;5042152;28;20429;-69
2023/10/02 00:42:55;;;;;;;6.20;4.37;;;16.90;99.90;;;;;;5043205;28;20436;-69
2023/10/02 00:45:38;;;;;;;5.97;4.50;;;16.90;99.90;;;;;;5051059;28;20426;-69
2023/10/02 00:50:49;;;;;;;7.00;4.70;;;16.90;99.90;;;;;;5043910;28;20490;-69
2023/10/02 00:53:15;;;;;;;6.00;4.43;;;17.00;99.90;;;;;;5050272;28;20432;-69
2023/10/02 00:55:44;;;;;;;8.53;5.30;;;17.00;99.90;;;;;;5050039;28;20335;-69
2023/10/02 00:58:11;;;;;;;7.50;4.40;;;17.00;99.90;;;;;;5049849;28;20447;-69
2023/10/02 01:00:37;;;;;;;6.50;4.83;;;17.00;99.90;;;;;;5051379;28;21144;-69
2023/10/02 01:03:14;;;;;;;6.67;5.33;;;17.00;99.90;;;;;;5050315;28;20501;-69
2023/10/02 01:05:50;;;;;;;9.33;4.97;;;17.00;99.90;;;;;;5045270;28;20193;-69
2023/10/02 01:08:23;;;;;;;8.50;5.07;;;17.10;99.90;;;;;;5045326;28;20972;-69
2023/10/02 01:10:57;;;;;;;6.50;4.50;;;17.10;99.90;;;;;;5054532;28;20530;-69
2023/10/02 01:13:34;;;;;;;8.33;4.20;;;17.10;99.90;;;;;;5055169;28;20416;-68
2023/10/02 01:16:07;;;;;;;10.60;5.00;;;17.10;99.90;;;;;;5051167;28;20790;-69
2023/10/02 01:18:33;;;;;;;7.83;5.17;;;17.10;99.90;;;;;;5052626;28;20432;-71
2023/10/02 01:21:01;;;;;;;6.50;4.93;;;17.10;99.90;;;;;;5054373;28;21001;-69
2023/10/02 01:23:31;;;;;;;6.13;4.30;;;17.10;99.90;;;;;;5052993;28;20436;-68
2023/10/02 01:25:59;;;;;;;9.23;4.50;;;17.10;99.90;;;;;;5050902;28;20432;-68
2023/10/02 01:28:49;;;;;;;5.87;5.00;;;17.10;99.90;;;;;;5052613;28;20490;-68
2023/10/02 01:31:41;;;;;;;9.80;5.40;;;17.10;99.90;;;;;;5045772;28;20445;-69
2023/10/02 01:34:33;;;;;;;4.90;4.30;;;17.10;99.90;;;;;;5073250;28;20401;-69
2023/10/02 01:36:57;;;;;;;6.97;4.80;;;17.10;99.90;;;;;;5054338;28;20469;-69
2023/10/02 01:39:22;;;;;;;7.17;5.07;;;17.10;99.90;;;;;;5061764;28;20983;-69
2023/10/02 01:41:54;;;;;;;6.13;4.50;;;17.10;99.90;;;;;;5050237;28;20269;-69
2023/10/02 01:44:22;;;;;;;8.37;5.10;;;17.10;99.90;;;;;;5056522;28;20262;-68
2023/10/02 01:46:52;;;;;;;6.00;4.67;;;17.20;99.90;;;;;;5052696;28;20429;-69
2023/10/02 01:49:25;;;;;;;10.10;4.90;;;17.20;99.90;;;;;;5053860;28;20474;-68
2023/10/02 01:52:11;;;;;;;5.60;3.97;;;17.20;99.90;;;;;;5073707;28;20420;-68
2023/10/02 01:54:40;;;;;;;9.13;5.07;;;17.20;99.90;;;;;;5042630;28;22626;-69
2023/10/02 01:57:07;;;;;;;18.57;4.60;;;17.20;99.90;;;;;;5047551;28;20772;-69
2023/10/02 01:59:32;;;;;;;6.90;4.90;;;17.20;99.90;;;;;;5054402;28;20432;-69
2023/10/02 02:01:58;;;;;;;5.40;4.27;;;17.20;99.90;;;;;;5047421;28;20792;-69
2023/10/02 02:04:33;;;;;;;8.00;5.43;;;17.20;99.90;;;;;;5046951;28;20224;-69
2023/10/02 02:07:00;;;;;;;7.73;4.50;;;17.20;99.90;;;;;;5047200;28;20189;-68
2023/10/02 02:09:26;;;;;;;7.20;4.33;;;17.20;99.90;;;;;;5050894;28;20463;-69
2023/10/02 02:12:05;;;;;;;8.67;5.33;;;17.20;99.90;;;;;;5054103;28;20486;-69
2023/10/02 02:14:51;;;;;;;7.10;5.20;;;17.20;99.90;;;;;;5040759;28;20461;-69
2023/10/02 02:17:26;;;;;;;8.33;5.30;;;17.20;99.90;;;;;;5073953;28;20482;-68
2023/10/02 02:19:59;;;;;;;11.47;5.57;;;17.20;99.90;;;;;;5053332;28;20486;-68
2023/10/02 02:22:26;;;;;;;6.23;4.57;;;17.20;99.90;;;;;;5061219;28;20924;-71
2023/10/02 02:24:58;;;;;;;10.87;6.50;;;17.20;99.90;;;;;;5053522;28;20428;-69
2023/10/02 02:27:24;;;;;;;6.10;4.90;;;17.20;99.90;;;;;;5045134;28;20461;-68
2023/10/02 02:29:54;;;;;;;7.77;4.77;;;17.20;99.90;;;;;;5048550;28;20457;-68
2023/10/02 02:32:36;;;;;;;7.30;5.00;;;17.20;99.90;;;;;;5053006;28;20430;-69
2023/10/02 02:35:04;;;;;;;7.93;4.50;;;17.20;99.90;;;;;;5095141;22;20485;-71
2023/10/02 02:37:32;;;;;;;7.97;5.17;;;17.20;99.90;;;;;;5064858;28;20504;-73
2023/10/02 02:40:21;;;;;;;7.33;4.47;;;17.20;99.90;;;;;;5054325;28;20526;-71
2023/10/02 02:42:45;;;;;;;9.30;5.37;;;17.20;99.90;;;;;;5067621;28;20485;-71
2023/10/02 02:45:30;;;;;;;9.07;4.73;;;17.20;99.90;;;;;;5044021;28;20454;-74
2023/10/02 02:48:03;;;;;;;7.40;5.47;;;17.20;99.90;;;;;;5047134;28;20409;-75
2023/10/02 02:50:51;;;;;;;7.20;5.20;;;17.20;99.90;;;;;;5054673;28;20469;-74
2023/10/02 02:53:17;;;;;;;9.80;5.07;;;17.10;99.90;;;;;;5039526;28;20428;-72
2023/10/02 02:55:43;;;;;;;7.40;5.53;;;17.10;99.90;;;;;;5056336;28;20436;-71
2023/10/02 02:58:09;;;;;;;10.83;5.93;;;17.10;99.90;;;;;;5049291;28;20443;-71
2023/10/02 03:00:39;;;;;;;9.03;5.20;;;17.10;99.90;;;;;;5053383;28;20489;-71
2023/10/02 03:03:29;;;;;;;8.33;5.00;;;17.10;99.90;;;;;;5045566;28;20661;-70
2023/10/02 03:05:52;;;;;;;5.07;4.40;;;17.10;99.90;;;;;;5052019;28;20570;-71
2023/10/02 03:08:19;;;;;;;9.17;5.17;;;17.10;99.90;;;;;;5052927;28;20489;-72
2023/10/02 03:10:47;;;;;;;7.70;4.90;;;17.10;99.90;;;;;;5054593;28;20461;-73
2023/10/02 03:13:16;;;;;;;9.40;5.60;;;17.00;99.90;;;;;;5028642;28;21004;-73
2023/10/02 03:15:46;;;;;;;11.73;5.17;;;16.90;99.90;;;;;;5037925;28;20544;-76
2023/10/02 03:18:30;;;;;;;8.00;5.10;;;16.90;99.90;;;;;;5047358;28;20441;-73
2023/10/02 03:23:38;;;;;;;7.73;5.33;;;16.90;99.90;;;;;;5042535;28;20425;-73
2023/10/02 03:26:21;;;;;;;8.73;5.13;;;16.80;99.90;;;;;;5052783;28;20532;-70
2023/10/02 03:28:47;;;;;;;7.37;5.43;;;16.80;99.90;;;;;;5032717;28;20429;-71
2023/10/02 03:31:17;;;;;;;9.20;4.60;;;16.70;99.90;;;;;;5032381;28;20539;-72
2023/10/02 03:33:42;;;;;;;8.70;4.97;;;16.70;99.90;;;;;;5034368;28;20772;-72
2023/10/02 03:36:14;;;;;;;7.40;4.73;;;16.60;99.90;;;;;;5046830;28;20471;-72
2023/10/02 03:38:43;;;;;;;5.17;4.67;;;16.60;99.90;;;;;;5045149;28;20554;-71
2023/10/02 03:41:13;;;;;;;8.03;5.10;;;16.50;99.90;;;;;;5039706;28;20506;-72
2023/10/02 03:43:47;;;;;;;10.00;5.03;;;16.40;99.90;;;;;;5054315;28;20456;-71
2023/10/02 03:46:23;;;;;;;8.07;5.73;;;16.30;99.90;;;;;;5054648;28;20510;-71
2023/10/02 03:49:01;;;;;;;8.33;4.50;;;16.30;99.90;;;;;;5041874;28;20849;-71
2023/10/02 03:51:36;;;;;;;8.17;5.40;;;16.30;99.90;;;;;;5043207;28;20436;-73
2023/10/02 03:54:18;;;;;;;8.07;5.30;;;16.30;99.90;;;;;;5036180;28;20421;-73
2023/10/02 03:56:51;;;;;;;8.87;5.90;;;16.20;99.90;;;;;;5049615;28;20428;-70
2023/10/02 03:59:21;;;;;;;7.83;5.37;;;16.20;99.90;;;;;;5040832;28;20445;-71
2023/10/02 04:01:47;;;;;;;12.30;5.57;;;16.10;99.90;;;;;;5050566;28;20460;-70
2023/10/02 04:06:42;;;;;;;7.50;5.37;;;16.10;99.90;;;;;;5049893;28;20426;-71
2023/10/02 04:09:18;;;;;;;8.70;5.47;;;16.00;99.90;;;;;;5053324;28;20446;-71
2023/10/02 04:11:48;;;;;;;9.17;5.93;;;16.00;99.90;;;;;;5048548;28;20470;-71
2023/10/02 04:14:17;;;;;;;8.10;5.50;;;16.00;99.90;;;;;;5039235;28;20431;-71
2023/10/02 04:17:00;;;;;;;8.63;5.60;;;16.00;99.90;;;;;;5027724;28;20483;-73
2023/10/02 04:19:26;;;;;;;9.33;5.60;;;15.90;99.90;;;;;;5044931;28;20783;-72
2023/10/02 04:21:53;;;;;;;7.57;5.10;;;15.90;99.90;;;;;;5046605;28;20453;-71
2023/10/02 04:24:23;;;;;;;9.33;6.57;;;15.80;99.90;;;;;;5039852;28;20444;-71
2023/10/02 04:26:54;;;;;;;7.33;6.27;;;15.80;99.90;;;;;;5051014;28;20423;-74
2023/10/02 04:29:26;;;;;;;14.40;5.80;;;15.80;99.90;;;;;;5040466;28;20536;-72
2023/10/02 04:32:14;;;;;;;9.70;5.70;;;15.80;99.90;;;;;;5032900;28;20444;-71
2023/10/02 04:34:46;;;;;;;8.90;5.97;;;15.70;99.90;;;;;;5033907;28;20518;-71
2023/10/02 04:37:19;;;;;;;9.07;6.70;;;15.70;99.90;;;;;;5029022;28;20511;-73
2023/10/02 04:40:07;;;;;;;12.90;6.40;;;15.70;99.90;;;;;;5023978;28;20439;-71
2023/10/02 04:45:26;;;;;;;8.67;6.33;;;15.60;99.90;;;;;;5040348;28;20478;-70
2023/10/02 04:47:55;;;;;;;8.13;5.67;;;15.60;99.90;;;;;;5047778;28;20418;-72
2023/10/02 04:56:07;;;;;;;9.30;5.70;;;15.50;99.90;;;;;;4942340;29;20427;-71
2023/10/02 04:58:39;;;;;;;11.30;5.63;;;15.50;99.90;;;;;;4944688;29;20455;-74
2023/10/02 05:03:46;;;;;;;11.10;7.43;;;15.50;99.90;;;;;;5041012;28;20423;-72
2023/10/02 05:06:16;;;;;;;14.33;8.17;;;15.50;99.90;;;;;;5048429;28;20811;-73
2023/10/02 05:11:26;;;;;;;10.80;8.47;;;15.60;99.90;;;;;;5039989;28;20452;-72
2023/10/02 05:16:34;;;;;;;10.70;8.07;;;15.50;99.90;;;;;;5045542;28;20822;-71
2023/10/02 05:19:04;;;;;;;9.53;7.63;;;15.50;99.90;;;;;;5042398;28;20429;-70
2023/10/02 05:21:38;;;;;;;10.70;6.77;;;15.50;99.90;;;;;;5050118;28;20419;-76
2023/10/02 05:24:11;;;;;;;13.53;6.77;;;15.50;99.90;;;;;;5051320;28;20438;-73
2023/10/02 05:26:39;;;;;;;10.80;6.70;;;15.50;99.90;;;;;;5050597;28;20975;-72
2023/10/02 05:29:07;;;;;;;12.23;7.30;;;15.50;99.90;;;;;;5040102;28;20431;-71
2023/10/02 05:31:36;;;;;;;14.20;6.17;;;15.50;99.90;;;;;;5034588;28;20439;-74
2023/10/02 05:34:08;;;;;;;10.10;7.43;;;15.50;99.90;;;;;;5040183;28;20435;-72
2023/10/02 05:36:35;;;;;;;9.23;6.80;;;15.50;99.90;;;;;;5056363;28;20438;-70
2023/10/02 05:39:16;;;;;;;12.43;6.97;;;15.50;99.90;;;;;;5041180;28;20473;-71
2023/10/02 05:41:46;;;;;;;10.83;7.03;;;15.50;99.90;;;;;;5035258;28;20437;-70
2023/10/02 05:44:23;;;;;;;12.17;8.17;;;15.60;99.90;;;;;;5044718;28;20414;-72
2023/10/02 05:46:55;;;;;;;15.13;9.10;;;15.60;99.90;;;;;;5034107;28;20790;-72
2023/10/02 05:49:24;;;;;;;9.63;6.37;;;15.70;99.90;;;;;;5037492;28;20589;-73
2023/10/02 05:51:55;;;;;;;15.60;7.67;;;15.70;99.90;;;;;;5042286;28;20414;-71
2023/10/02 05:54:35;;;;;;;12.87;7.30;;;15.80;99.90;;;;;;5031920;28;20436;-71
2023/10/02 05:57:08;;;;;;;9.40;6.47;;;15.80;99.90;;;;;;5037924;28;20435;-72
2023/10/02 05:59:54;;;;;;;12.27;6.40;;;15.80;99.90;;;;;;5057106;28;20436;-70
2023/10/02 06:02:24;;;;;;;10.87;6.73;;;15.80;99.90;;;;;;5031083;28;20523;-70
2023/10/02 06:04:54;;;;;;;10.60;7.67;;;15.90;99.90;;;;;;5041652;28;20470;-70
2023/10/02 06:10:18;;;;;;;12.00;7.40;;;16.40;99.90;;;;;;5037711;28;20442;-70
2023/10/02 06:12:46;;;;;;;11.43;7.07;;;16.70;99.90;;;;;;5039906;28;20501;-72
2023/10/02 06:17:58;;;;;;;10.47;6.10;;;16.60;99.90;;;;;;5039141;28;20508;-71
2023/10/02 06:20:24;;;;;;;12.30;7.13;;;16.70;99.90;;;;;;5042299;28;20492;-70
2023/10/02 06:22:56;;;;;;;13.97;6.97;;;16.80;99.90;;;;;;5044721;28;20432;-71
2023/10/02 06:25:29;;;;;;;9.70;7.00;;;17.10;99.90;;;;;;5054725;28;20480;-72
2023/10/02 06:28:19;;;;;;;13.93;8.53;;;17.30;99.90;;;;;;5051819;28;20825;-71
2023/10/02 06:30:43;;;;;;;11.60;7.60;;;17.60;99.90;;;;;;5043464;28;20464;-71
2023/10/02 06:33:10;;;;;;;11.03;6.17;;;17.70;99.90;;;;;;5056117;28;20503;-72
2023/10/02 06:35:44;;;;;;;9.27;6.13;;;17.80;99.90;;;;;;5040669;28;20456;-71
2023/10/02 06:38:16;;;;;;;9.87;7.80;;;17.90;99.90;;;;;;5046744;28;20593;-73
2023/10/02 06:40:55;;;;;;;10.77;6.80;;;18.10;99.90;;;;;;5046317;28;20431;-72
2023/10/02 06:43:32;;;;;;;10.80;7.17;;;18.20;99.90;;;;;;5049403;28;20415;-73
2023/10/02 06:46:09;;;;;;;13.37;7.63;;;18.10;99.90;;;;;;5038771;28;20429;-72
2023/10/02 06:48:35;;;;;;;9.97;7.10;;;18.40;99.90;;;;;;5047556;28;20514;-72
2023/10/02 06:51:04;;;;;;;11.57;8.43;;;18.70;99.90;;;;;;5045967;28;20459;-71
2023/10/02 06:53:31;;;;;;;10.50;7.33;;;19.00;99.90;;;;;;5051254;28;20523;-70
2023/10/02 06:56:00;;;;;;;13.87;6.73;;;19.10;99.90;;;;;;5023716;28;20474;-70
2023/10/02 06:58:26;;;;;;;11.73;8.87;;;18.80;99.90;;;;;;5050710;28;20926;-70
2023/10/02 07:00:54;;;;;;;13.40;7.87;;;18.70;99.90;;;;;;5034877;28;20479;-70
2023/10/02 07:03:21;;;;;;;12.13;8.70;;;18.90;99.90;;;;;;5045997;28;20185;-70
2023/10/02 07:05:50;;;;;;;14.73;8.03;;;18.60;99.90;;;;;;5050671;28;20438;-70
2023/10/02 07:08:22;;;;;;;10.03;7.70;;;18.70;99.90;;;;;;5039422;28;20425;-70
2023/10/02 07:10:48;;;;;;;11.30;7.57;;;19.10;99.90;;;;;;5036498;28;20995;-69
2023/10/02 07:13:20;;;;;;;11.20;7.07;;;19.50;99.90;;;;;;5041981;28;20503;-69
2023/10/02 07:15:59;;;;;;;8.57;6.20;;;19.80;99.90;;;;;;5050715;28;20465;-70
2023/10/02 07:18:45;;;;;;;10.97;7.17;;;20.10;99.90;;;;;;5033139;28;20483;-71
2023/10/02 07:21:11;;;;;;;9.57;7.23;;;20.50;99.90;;;;;;5044084;28;20418;-74
2023/10/02 07:23:40;;;;;;;9.77;7.43;;;20.80;99.90;;;;;;5052773;28;20825;-72
2023/10/02 07:26:13;;;;;;;9.80;6.90;;;21.20;99.90;;;;;;5052962;28;20202;-71
2023/10/02 07:28:50;;;;;;;11.60;7.03;;;21.30;99.90;;;;;;5053193;28;20413;-70
2023/10/02 07:31:19;;;;;;;9.90;6.40;;;20.80;99.90;;;;;;5040153;28;20992;-71
2023/10/02 07:33:45;;;;;;;10.70;7.40;;;21.20;99.90;;;;;;5032750;28;20414;-72
2023/10/02 07:36:14;;;;;;;10.40;7.73;;;21.20;99.90;;;;;;5042850;28;20461;-71
2023/10/02 07:38:46;;;;;;;10.00;7.20;;;21.00;99.90;;;;;;5032840;28;20575;-70
2023/10/02 07:41:23;;;;;;;14.23;7.00;;;20.90;99.90;;;;;;5040324;28;20792;-70
2023/10/02 07:43:52;;;;;;;11.37;7.03;;;21.10;99.90;;;;;;5034330;28;20480;-71
2023/10/02 07:46:21;;;;;;;11.53;7.67;;;21.10;99.90;;;;;;5044114;28;20985;-70
2023/10/02 07:49:00;;;;;;;11.03;7.70;;;21.30;99.90;;;;;;5045756;28;20416;-73
2023/10/02 07:51:35;;;;;;;11.00;7.53;;;21.40;99.90;;;;;;5035800;28;20491;-71
2023/10/02 07:54:02;;;;;;;12.40;8.13;;;21.20;99.90;;;;;;5044910;28;20413;-72
2023/10/02 07:56:29;;;;;;;9.03;7.33;;;21.20;99.90;;;;;;5043859;28;20420;-71
2023/10/02 07:59:01;;;;;;;12.10;7.70;;;21.30;99.90;;;;;;5043938;28;20947;-70
2023/10/02 08:01:27;;;;;;;12.57;8.60;;;21.40;99.90;;;;;;5039076;28;20398;-70
2023/10/02 08:03:55;;;;;;;11.53;7.60;;;21.50;99.90;;;;;;5044002;28;20436;-71
2023/10/02 08:06:33;;;;;;;11.90;7.30;;;21.60;99.90;;;;;;5048387;28;20456;-70
2023/10/02 08:12:11;;;;;;;11.60;6.70;;;22.40;99.90;;;;;;4989779;28;20429;-69
2023/10/02 08:14:42;;;;;;;10.83;7.13;;;22.60;99.90;;;;;;4990649;28;21016;-69
2023/10/02 08:17:18;;;;;;;9.87;7.30;;;22.60;99.90;;;;;;5025687;28;20413;-71
2023/10/02 08:19:54;;;;;;;12.93;7.57;;;22.70;99.90;;;;;;5048130;28;20417;-71
2023/10/02 08:22:36;;;;;;;10.33;7.77;;;23.50;99.90;;;;;;5048807;28;20409;-72
2023/10/02 08:25:03;;;;;;;15.23;8.23;;;23.60;99.90;;;;;;5053147;28;20443;-73
2023/10/02 08:27:32;;;;;;;14.17;7.37;;;23.80;99.90;;;;;;5044379;28;20410;-71
2023/10/02 08:29:57;;;;;;;10.07;6.63;;;23.40;99.90;;;;;;5045241;28;20824;-71
2023/10/02 08:32:30;;;;;;;9.90;6.97;;;23.20;99.90;;;;;;5040625;28;20398;-73
2023/10/02 08:34:57;;;;;;;12.47;8.10;;;22.90;99.90;;;;;;5043301;28;20203;-70
2023/10/02 08:37:23;;;;;;;12.30;8.10;;;22.90;99.90;;;;;;5036217;28;20441;-73
2023/10/02 08:39:51;;;;;;;9.33;7.53;;;22.80;99.90;;;;;;5025963;28;20504;-71
2023/10/02 08:42:18;;;;;;;11.77;7.03;;;23.00;99.90;;;;;;5052576;28;20413;-73
2023/10/02 08:44:44;;;;;;;10.70;8.13;;;23.00;99.90;;;;;;5045443;28;20437;-70
2023/10/02 08:47:12;;;;;;;11.07;7.63;;;22.60;99.90;;;;;;5053663;28;20413;-75
2023/10/02 08:49:41;;;;;;;15.00;8.00;;;23.00;99.90;;;;;;5014541;28;20454;-72
2023/10/02 08:52:11;;;;;;;10.67;7.40;;;23.10;99.90;;;;;;5036432;28;20524;-73
2023/10/02 08:54:39;;;;;;;9.67;7.97;;;23.60;99.90;;;;;;5035727;28;20513;-72
2023/10/02 08:57:06;;;;;;;9.43;7.23;;;23.20;99.90;;;;;;5034863;28;20421;-72
2023/10/02 08:59:38;;;;;;;13.73;8.70;;;23.30;99.90;;;;;;5046241;28;20435;-70
2023/10/02 09:02:14;;;;;;;10.20;7.13;;;23.90;99.90;;;;;;5045332;28;20763;-69
2023/10/02 09:04:55;;;;;;;11.80;7.03;;;23.70;99.90;;;;;;5037051;28;20496;-70
2023/10/02 09:10:25;;;;;;;10.10;6.87;;;24.10;99.90;;;;;;5029593;28;20486;-70
2023/10/02 09:13:18;;;;;;;8.33;6.60;;;24.40;99.90;;;;;;5030173;28;20421;-69
2023/10/02 09:15:46;;;;;;;13.50;7.80;;;24.40;99.90;;;;;;5031489;28;20451;-73
2023/10/02 09:18:34;;;;;;;12.10;6.43;;;24.30;99.90;;;;;;5029487;28;20457;-72
2023/10/02 09:21:21;;;;;;;8.23;6.37;;;24.30;99.90;;;;;;5040907;28;20932;-72
2023/10/02 09:23:53;;;;;;;9.60;6.07;;;24.10;99.90;;;;;;5036705;28;20483;-70
2023/10/02 09:26:27;;;;;;;15.40;11.13;;;24.20;99.90;;;;;;5049431;28;20431;-69
2023/10/02 09:29:00;;;;;;;8.23;6.17;;;24.10;99.90;;;;;;5050167;28;20452;-69
2023/10/02 09:31:31;;;;;;;8.73;6.57;;;24.10;99.90;;;;;;5046031;28;20959;-71
2023/10/02 09:34:04;;;;;;;11.43;7.77;;;23.80;99.90;;;;;;5054981;28;20408;-70
2023/10/02 09:36:36;;;;;;;14.87;9.30;;;24.00;99.90;;;;;;5023402;28;20440;-72
2023/10/02 09:42:05;;;;;;;7.77;6.97;;;24.40;99.90;;;;;;5046570;28;20495;-70
2023/10/02 09:44:40;;;;;;;8.20;6.30;;;24.60;99.90;;;;;;5050102;28;20448;-70
2023/10/02 09:47:07;;;;;;;10.83;6.47;;;24.20;99.90;;;;;;5050393;28;20467;-71
2023/10/02 09:49:42;;;;;;;10.00;7.67;;;24.30;99.90;;;;;;5053537;28;20463;-70
2023/10/02 09:52:16;;;;;;;9.23;6.67;;;24.70;99.90;;;;;;5051877;28;20507;-69
2023/10/02 09:55:03;;;;;;;9.23;5.43;;;24.50;99.90;;;;;;5041809;28;20448;-70
2023/10/02 09:57:36;;;;;;;11.27;7.53;;;24.60;99.90;;;;;;5047060;28;20401;-70
2023/10/02 10:00:33;;;;;;;9.87;5.90;;;24.90;99.90;;;;;;5040840;28;20449;-70
2023/10/02 10:03:33;;;;;;;14.40;6.67;;;24.80;99.90;;;;;;5053921;28;20766;-70
2023/10/02 10:06:08;;;;;;;8.33;6.00;;;24.80;99.90;;;;;;4990135;28;20446;-70
2023/10/02 10:14:42;;;;;;;12.43;8.70;;;24.80;99.90;;;;;;5043848;28;20488;-72
2023/10/02 10:17:49;;;;;;;11.00;6.93;;;24.60;99.90;;;;;;5050669;28;21005;-72
2023/10/02 10:20:25;;;;;;;12.50;7.63;;;24.70;99.90;;;;;;5056223;28;20488;-72
2023/10/02 10:22:51;;;;;;;11.20;8.13;;;24.90;99.90;;;;;;5033470;28;20432;-72
2023/10/02 10:27:55;;;;;;;9.27;7.00;;;24.50;99.90;;;;;;5051642;28;20277;-71
2023/10/02 10:30:28;;;;;;;12.93;9.03;;;25.00;99.90;;;;;;5054685;28;20588;-70
2023/10/02 10:35:38;;;;;;;10.37;7.40;;;25.20;99.90;;;;;;5045739;28;20533;-71
2023/10/02 10:38:23;;;;;;;10.90;8.30;;;25.00;99.90;;;;;;5049437;28;20460;-70
2023/10/02 10:40:55;;;;;;;15.07;6.87;;;25.00;99.90;;;;;;5042405;28;20482;-70
2023/10/02 10:43:26;;;;;;;17.13;13.10;;;24.90;99.90;;;;;;5033407;28;20416;-71
2023/10/02 10:45:54;;;;;;;9.03;5.57;;;24.80;99.90;;;;;;5047863;28;20809;-71
2023/10/02 10:48:23;;;;;;;9.23;5.93;;;24.70;99.90;;;;;;5053381;28;20819;-70
2023/10/02 10:50:57;;;;;;;11.23;8.33;;;24.40;99.90;;;;;;5048164;28;20488;-71
2023/10/02 10:53:41;;;;;;;12.33;5.93;;;24.70;99.90;;;;;;5052858;28;20829;-71
2023/10/02 10:56:17;;;;;;;8.77;7.13;;;24.60;99.90;;;;;;5051278;28;20803;-71
2023/10/02 10:58:44;;;;;;;8.23;5.30;;;24.30;99.90;;;;;;5051071;28;20497;-70
2023/10/02 11:01:16;;;;;;;9.17;7.00;;;24.40;99.90;;;;;;5052802;28;20417;-70
2023/10/02 11:03:53;;;;;;;12.50;7.10;;;24.80;99.90;;;;;;5052294;28;20425;-71
2023/10/02 11:06:21;;;;;;;12.80;9.27;;;24.70;99.90;;;;;;5044941;28;20578;-70
2023/10/02 11:09:11;;;;;;;11.07;5.60;;;24.80;99.90;;;;;;5052652;28;20444;-70
2023/10/02 11:11:49;;;;;;;8.20;6.03;;;24.90;99.90;;;;;;5046709;28;20494;-71
2023/10/02 11:14:21;;;;;;;11.50;5.60;;;25.00;99.90;;;;;;5051637;28;20495;-75
2023/10/02 11:16:51;;;;;;;7.47;5.33;;;24.80;99.90;;;;;;5049593;28;20433;-71
2023/10/02 11:19:23;;;;;;;9.23;5.83;;;24.70;99.90;;;;;;5052574;28;20428;-72
2023/10/02 11:22:14;;;;;;;8.40;5.07;;;24.70;99.90;;;;;;5053052;28;20404;-70
2023/10/02 11:24:55;;;;;;;9.90;5.70;;;24.60;99.90;;;;;;5046083;28;20442;-74
2023/10/02 11:27:24;;;;;;;11.93;6.27;;;24.70;99.90;;;;;;5052844;28;20788;-71
2023/10/02 11:30:01;;;;;;;8.20;5.77;;;24.80;99.90;;;;;;5034704;28;20497;-71
2023/10/02 11:33:19;;;;;;;7.20;4.90;;;24.90;99.90;;;;;;5047541;28;20562;-72
2023/10/02 11:35:38;;;;;;;9.63;7.70;;;24.90;99.90;;;;;;5042781;28;20446;-74
2023/10/02 11:38:07;;;;;;;8.60;5.73;;;25.20;99.90;;;;;;5046045;28;20420;-75
2023/10/02 11:40:36;;;;;;;10.53;5.57;;;25.10;99.90;;;;;;5052380;28;20174;-74
2023/10/02 11:43:02;;;;;;;8.90;5.90;;;25.10;99.90;;;;;;5052119;28;20470;-71
2023/10/02 11:45:32;;;;;;;7.20;5.30;;;25.00;99.90;;;;;;5049020;28;20905;-72
2023/10/02 11:47:58;;;;;;;9.53;5.73;;;24.90;99.90;;;;;;5047458;28;20641;-71
2023/10/02 11:50:24;;;;;;;8.70;5.20;;;25.10;99.90;;;;;;5050804;28;20465;-71
2023/10/02 11:52:50;;;;;;;10.47;5.90;;;25.00;99.90;;;;;;5044771;28;20182;-70
2023/10/02 11:55:19;;;;;;;11.27;6.93;;;25.10;99.90;;;;;;5051333;28;20218;-70
2023/10/02 11:57:51;;;;;;;11.17;7.60;;;25.10;99.90;;;;;;5052236;28;21192;-72
2023/10/02 12:00:20;;;;;;;10.80;6.87;;;25.30;99.90;;;;;;5052042;28;20435;-69
2023/10/02 12:02:46;;;;;;;12.00;8.87;;;25.00;99.90;;;;;;5032958;28;20410;-73
2023/10/02 12:05:12;;;;;;;11.60;7.30;;;25.00;99.90;;;;;;5051484;28;20926;-73
2023/10/02 12:07:39;;;;;;;8.80;6.63;;;24.90;99.90;;;;;;5051723;28;20426;-71
2023/10/02 12:10:06;;;;;;;7.60;5.50;;;24.90;99.90;;;;;;5046649;28;20202;-72
2023/10/02 12:12:31;;;;;;;10.93;7.47;;;25.10;99.90;;;;;;5043745;28;20470;-74
2023/10/02 12:14:57;;;;;;;11.10;7.77;;;25.10;99.90;;;;;;5036445;28;20436;-74
2023/10/02 12:17:23;;;;;;;10.43;7.13;;;25.20;99.90;;;;;;5050665;28;20201;-72
2023/10/02 12:19:50;;;;;;;10.50;6.30;;;25.20;99.90;;;;;;5033567;28;20504;-71
2023/10/02 12:22:15;;;;;;;8.40;6.17;;;25.30;99.90;;;;;;5051494;28;20421;-77
2023/10/02 12:24:41;;;;;;;8.97;6.47;;;25.40;99.90;;;;;;5049276;28;20479;-71
2023/10/02 12:27:10;;;;;;;13.57;6.47;;;25.20;99.90;;;;;;5048184;28;20260;-71
2023/10/02 12:29:37;;;;;;;10.60;6.70;;;25.10;99.90;;;;;;5043157;28;20663;-71
2023/10/02 12:32:03;;;;;;;8.53;6.60;;;25.40;99.90;;;;;;5046107;28;20923;-71
2023/10/02 12:34:29;;;;;;;8.30;6.27;;;25.50;99.90;;;;;;5050459;28;20455;-70
2023/10/02 12:36:55;;;;;;;10.20;6.67;;;25.30;99.90;;;;;;5043266;28;20896;-72
2023/10/02 12:39:22;;;;;;;10.50;6.70;;;25.50;99.90;;;;;;5049192;28;20224;-72
2023/10/02 12:41:48;;;;;;;10.73;7.53;;;25.50;99.90;;;;;;5043195;28;20420;-72
2023/10/02 12:44:16;;;;;;;13.00;9.80;;;25.50;99.90;;;;;;5046387;28;20476;-74
2023/10/02 12:46:49;;;;;;;13.47;8.70;;;25.60;99.90;;;;;;5051995;28;20169;-72
2023/10/02 12:49:14;;;;;;;11.07;8.60;;;25.70;99.90;;;;;;5051057;28;20428;-72
2023/10/02 12:51:41;;;;;;;9.43;6.27;;;25.70;99.90;;;;;;5027938;28;20421;-75
2023/10/02 12:54:07;;;;;;;10.73;6.80;;;25.50;99.90;;;;;;5042990;28;20181;-72
2023/10/02 12:56:33;;;;;;;10.23;6.53;;;25.30;99.90;;;;;;5036193;28;20394;-71
2023/10/02 12:58:59;;;;;;;9.17;6.20;;;25.20;99.90;;;;;;5041936;28;20413;-72
2023/10/02 13:01:27;;;;;;;9.77;6.83;;;25.20;99.90;;;;;;5049952;28;20428;-72
2023/10/02 13:03:54;;;;;;;10.97;6.97;;;25.20;99.90;;;;;;5050431;28;20703;-72
2023/10/02 13:06:21;;;;;;;7.93;6.37;;;25.30;99.90;;;;;;5054714;28;21021;-71
2023/10/02 13:08:47;;;;;;;8.97;5.73;;;25.40;99.90;;;;;;5052559;28;20453;-77
2023/10/02 13:11:20;;;;;;;8.40;6.67;;;25.40;99.90;;;;;;5045974;28;20504;-74
2023/10/02 13:13:47;;;;;;;14.77;11.10;;;25.50;99.90;;;;;;5055293;28;20213;-71
2023/10/02 13:16:14;;;;;;;9.07;5.90;;;25.60;99.90;;;;;;5052034;28;20438;-72
2023/10/02 13:18:40;;;;;;;10.10;7.67;;;25.20;99.90;;;;;;5047406;28;20455;-74
2023/10/02 13:21:10;;;;;;;6.87;5.10;;;25.20;99.90;;;;;;5036932;28;20443;-73
2023/10/02 13:23:36;;;;;;;10.13;7.67;;;25.30;99.90;;;;;;5043794;28;20460;-73
2023/10/02 13:26:06;;;;;;;12.57;8.77;;;25.30;99.90;;;;;;5044500;28;20523;-73
2023/10/02 13:28:37;;;;;;;10.50;5.10;;;25.20;99.90;;;;;;5050142;28;20423;-73
2023/10/02 13:31:12;;;;;;;11.40;9.47;;;25.20;99.90;;;;;;5046503;28;20487;-75
2023/10/02 13:33:46;;;;;;;10.77;6.00;;;25.20;99.90;;;;;;5045490;28;20450;-73
2023/10/02 13:36:22;;;;;;;7.87;5.70;;;25.30;99.90;;;;;;5044888;28;20978;-76
2023/10/02 13:38:54;;;;;;;10.80;6.70;;;25.10;99.90;;;;;;5051048;28;20416;-78
2023/10/02 13:41:20;;;;;;;11.90;7.03;;;25.20;99.90;;;;;;5053669;28;20423;-74
2023/10/02 13:43:48;;;;;;;8.47;5.60;;;25.20;99.90;;;;;;5037855;28;20430;-73
2023/10/02 13:46:16;;;;;;;7.27;5.10;;;25.40;99.90;;;;;;5037752;28;20835;-72
2023/10/02 13:48:42;;;;;;;9.83;5.80;;;25.30;99.90;;;;;;5043588;28;20440;-76
2023/10/02 13:51:09;;;;;;;7.80;5.67;;;25.20;99.90;;;;;;5050646;28;20458;-74
2023/10/02 13:53:36;;;;;;;15.17;10.20;;;25.20;99.90;;;;;;5050601;28;20413;-70
2023/10/02 13:56:10;;;;;;;10.57;6.40;;;25.30;99.90;;;;;;5054511;28;20938;-75
2023/10/02 13:58:39;;;;;;;7.67;6.70;;;25.40;99.90;;;;;;5039701;28;21062;-71